• Join FlightAware (Why Join?)
  • Login
  • US Flag 
06:23AM EDT


 

Airport Tracker/Info


-or-


 

Live Flight TrackerFlight Track Log ✈ ASQ4874 ✈ 30-Sep-2013 ✈ KCHS - KATL

Flight Track Log - Related Links

Times and Time Zones

All times are in EDT time to prevent confusion due to time zone crossing. See the ASQ4874 flight status page for this flight to view local times or setup timezone preferences in your user account.

Time Position Orientation Groundspeed Altitude Reporting Facility
EDT Latitude Longitude Course Direction KTS MPH feet Rate Location/Type
05:46AM 32.9319 -80.1403 241° Southwest 242 278 3,600  Level Jacksonville Center
05:47AM 32.8961 -80.2183 241° Southwest 259 298 6,800 2,760 Climbing Jacksonville Center
05:48AM 32.8831 -80.2953 259° West 272 313 9,200 1,560 Climbing Jacksonville Center
05:49AM 32.8789 -80.4017 267° West 295 339 10,000 1,380 Climbing Jacksonville Center
05:50AM 32.8667 -80.5183 263° West 332 382 12,000 1,860 Climbing Jacksonville Center
05:51AM 32.8522 -80.6422 262° West 367 422 13,800 2,100 Climbing Jacksonville Center
05:52AM 32.8375 -80.7589 261° West 373 429 16,200 2,100 Climbing Jacksonville Center
05:53AM 32.8228 -80.8778 262° West 368 423 18,100 1,800 Climbing Jacksonville Center
05:55AM 32.7983 -81.0686 261° West 368 423 21,000 1,620 Climbing Atlanta Center
05:56AM 32.7822 -81.1900 261° West 373 429 22,500 1,440 Climbing Atlanta Center
05:57AM 32.7664 -81.3117 261° West 373 429 23,900 1,320 Climbing Atlanta Center
05:58AM 32.7503 -81.4356 261° West 373 429 25,200 1,020 Climbing Atlanta Center
05:59AM 32.7339 -81.5597 261° West 373 429 26,000 360 Climbing Atlanta Center
06:00AM 32.7239 -81.6908 265° West 389 448 26,000  Level Atlanta Center
06:01AM 32.7556 -81.8133 287° West 389 448 26,000  Level Atlanta Center
06:02AM 32.7892 -81.9533 286° West 389 448 26,000  Level Atlanta Center
06:03AM 32.8183 -82.0739 286° West 389 448 26,000  Level Atlanta Center
06:04AM 32.8475 -82.1992 286° West 389 448 26,000  Level Atlanta Center
06:05AM 32.8764 -82.3222 286° West 394 453 26,000 -540 Level Atlanta Center
06:06AM 32.9053 -82.4481 285° West 394 453 25,000 -780 Descending Atlanta Center
06:07AM 32.9317 -82.5711 284° West 394 453 24,500 -540 Descending Atlanta Center
06:08AM 32.9622 -82.6894 287° West 389 448 24,000 -840 Descending Atlanta Center
06:09AM 32.9886 -82.8131 284° West 389 448 22,900 -1,320 Descending Atlanta Center
06:10AM 33.0169 -82.9364 285° West 389 448 21,400 -1,320 Descending Atlanta Center
06:11AM 33.0453 -83.0575 286° West 389 448 20,300 -1,260 Descending Atlanta Center
06:12AM 33.0731 -83.1786 285° West 389 448 18,900 -1,500 Descending Atlanta Center
06:13AM 33.0989 -83.2975 285° West 377 434 17,400 -1,200 Descending Atlanta Center
06:14AM 33.1247 -83.3964 287° West 364 419 16,500 -960 Descending Atlanta Center
06:15AM 33.1481 -83.5128 283° West 354 407 15,500 -1,020 Descending Atlanta Center
06:16AM 33.1714 -83.6244 284° West 354 407 14,500 -780 Descending Atlanta Center
06:17AM 33.1969 -83.7358 285° West 354 407 14,000 -300 Descending Atlanta Center
06:18AM 33.2367 -83.8375 295° West 349 402 14,000 -480 Level Atlanta Center
06:19AM 33.2975 -83.9269 309° West 343 395 13,100 -960 Descending Atlanta Center
06:20AM 33.3622 -84.0264 308° West 343 395 12,100 -600 Descending Atlanta Center
06:21AM 33.4206 -84.1086 310° West 343 395 12,000 -60 Descending Atlanta Center
06:22AM 33.4747 -84.1908 308° West 333 383 12,000  Level Atlanta Center
06:23AM 33.5228 -84.2606 310° West 294 338 12,000 -300 Level Atlanta Center
06:24AM 33.5350 -84.3353 281° West 247 284 11,400 -1,560 Descending Atlanta Center
06:25AM 33.5333 -84.4167 269° West 241 277 8,900 -2,460 Descending Atlanta TRACON
06:26AM 33.5333 -84.5000 270° West 227 261 6,200 -2,280 Descending Atlanta TRACON
06:27AM 33.5333 -84.5833 270° West 221 254 3,900 -1,620 Descending Atlanta TRACON
06:28AM 33.5833 -84.6000 344° North 191 220 3,000 -720 Descending Atlanta TRACON
06:29AM 33.6167 -84.5667 40° Northeast 175 201 2,600 -420 Descending Atlanta TRACON
06:30AM 33.6333 -84.5167 68° East 160 184 2,300 -600 Descending Atlanta TRACON
06:31AM 33.6333 -84.4833 90° East 131 151 1,600 -780 Descending Atlanta TRACON
06:33AM 33.6367 -84.4279 103° East  Level Estimated
06:40AM 33.6367 -84.4279 103° East  Level Estimated
06:41AM 33.6367 -84.4279 103° East  Level Estimated